sensor_id;sensor_type;location;lat;lon;timestamp;temperature;humidity
37896;DHT22;23733;53.254;10.430;2023-04-24T01:17:46;14.40;99.90
37896;DHT22;23733;53.254;10.430;2023-04-24T05:54:30;13.30;99.90
37896;DHT22;23733;53.254;10.430;2023-04-24T05:56:59;12.30;99.90
37896;DHT22;23733;53.254;10.430;2023-04-24T05:59:45;12.30;99.90
37896;DHT22;23733;53.254;10.430;2023-04-24T06:02:22;12.20;99.90
37896;DHT22;23733;53.254;10.430;2023-04-24T06:05:03;12.20;99.90
37896;DHT22;23733;53.254;10.430;2023-04-24T06:07:56;12.30;99.90
37896;DHT22;23733;53.254;10.430;2023-04-24T06:10:25;12.30;99.90
37896;DHT22;23733;53.254;10.430;2023-04-24T06:12:57;12.40;99.90
37896;DHT22;23733;53.254;10.430;2023-04-24T06:15:43;12.50;99.90
37896;DHT22;23733;53.254;10.430;2023-04-24T06:18:47;12.60;99.90
37896;DHT22;23733;53.254;10.430;2023-04-24T06:21:18;12.70;99.90
37896;DHT22;23733;53.254;10.430;2023-04-24T06:24:10;12.70;99.90
37896;DHT22;23733;53.254;10.430;2023-04-24T06:26:51;12.70;99.90
37896;DHT22;23733;53.254;10.430;2023-04-24T06:43:29;13.10;99.90
37896;DHT22;23733;53.254;10.430;2023-04-24T06:46:20;13.10;99.90
37896;DHT22;23733;53.254;10.430;2023-04-24T06:55:28;13.50;99.90
37896;DHT22;23733;53.254;10.430;2023-04-24T06:58:17;13.60;99.90
37896;DHT22;23733;53.254;10.430;2023-04-24T07:01:35;13.60;99.90
37896;DHT22;23733;53.254;10.430;2023-04-24T07:04:00;13.70;99.90
37896;DHT22;23733;53.254;10.430;2023-04-24T07:06:27;13.70;99.90
37896;DHT22;23733;53.254;10.430;2023-04-24T07:08:53;13.80;99.90
37896;DHT22;23733;53.254;10.430;2023-04-24T07:11:19;13.90;99.90
37896;DHT22;23733;53.254;10.430;2023-04-24T07:13:45;13.90;99.90
37896;DHT22;23733;53.254;10.430;2023-04-24T07:16:11;13.90;99.90
37896;DHT22;23733;53.254;10.430;2023-04-24T07:18:38;14.00;99.90
37896;DHT22;23733;53.254;10.430;2023-04-24T07:21:05;13.90;99.90
37896;DHT22;23733;53.254;10.430;2023-04-24T07:23:32;13.80;99.90
37896;DHT22;23733;53.254;10.430;2023-04-24T07:25:58;13.90;99.90
37896;DHT22;23733;53.254;10.430;2023-04-24T07:30:51;13.90;99.90
37896;DHT22;23733;53.254;10.430;2023-04-24T07:33:19;13.90;99.90
37896;DHT22;23733;53.254;10.430;2023-04-24T07:35:45;13.90;99.90
37896;DHT22;23733;53.254;10.430;2023-04-24T07:40:38;13.90;99.90
37896;DHT22;23733;53.254;10.430;2023-04-24T07:43:04;13.80;99.90
37896;DHT22;23733;53.254;10.430;2023-04-24T07:45:30;13.80;99.90
37896;DHT22;23733;53.254;10.430;2023-04-24T07:47:57;13.70;99.90
37896;DHT22;23733;53.254;10.430;2023-04-24T07:50:23;13.70;99.90
37896;DHT22;23733;53.254;10.430;2023-04-24T07:52:49;13.80;99.90
37896;DHT22;23733;53.254;10.430;2023-04-24T08:12:19;13.80;99.90
37896;DHT22;23733;53.254;10.430;2023-04-24T08:14:45;14.10;99.90
37896;DHT22;23733;53.254;10.430;2023-04-24T08:17:11;14.20;99.90
37896;DHT22;23733;53.254;10.430;2023-04-24T08:19:37;14.20;99.90
37896;DHT22;23733;53.254;10.430;2023-04-24T08:22:03;14.30;99.90
37896;DHT22;23733;53.254;10.430;2023-04-24T08:24:29;14.30;99.90
37896;DHT22;23733;53.254;10.430;2023-04-24T08:26:55;14.30;99.90
37896;DHT22;23733;53.254;10.430;2023-04-24T08:29:23;14.30;99.90
37896;DHT22;23733;53.254;10.430;2023-04-24T08:31:49;14.20;99.90
37896;DHT22;23733;53.254;10.430;2023-04-24T08:34:15;14.10;99.90
37896;DHT22;23733;53.254;10.430;2023-04-24T08:36:41;14.00;99.90
37896;DHT22;23733;53.254;10.430;2023-04-24T08:39:07;14.10;99.90
37896;DHT22;23733;53.254;10.430;2023-04-24T08:41:34;14.00;99.90
37896;DHT22;23733;53.254;10.430;2023-04-24T08:44:02;14.00;99.90
37896;DHT22;23733;53.254;10.430;2023-04-24T08:46:29;14.00;99.90
37896;DHT22;23733;53.254;10.430;2023-04-24T08:48:56;14.00;99.90
37896;DHT22;23733;53.254;10.430;2023-04-24T08:51:22;14.00;99.90
37896;DHT22;23733;53.254;10.430;2023-04-24T08:53:53;14.10;99.90
37896;DHT22;23733;53.254;10.430;2023-04-24T08:56:21;14.10;99.90
37896;DHT22;23733;53.254;10.430;2023-04-24T08:58:53;14.10;99.90
37896;DHT22;23733;53.254;10.430;2023-04-24T09:01:20;14.10;99.90
37896;DHT22;23733;53.254;10.430;2023-04-24T09:03:48;14.20;99.90
37896;DHT22;23733;53.254;10.430;2023-04-24T09:06:15;14.10;99.90
37896;DHT22;23733;53.254;10.430;2023-04-24T09:08:42;14.10;99.90
37896;DHT22;23733;53.254;10.430;2023-04-24T09:11:10;14.10;99.90
37896;DHT22;23733;53.254;10.430;2023-04-24T09:13:37;14.20;99.90
37896;DHT22;23733;53.254;10.430;2023-04-24T09:16:03;14.20;99.90
37896;DHT22;23733;53.254;10.430;2023-04-24T09:18:30;14.20;99.90
37896;DHT22;23733;53.254;10.430;2023-04-24T09:21:01;14.10;99.90
37896;DHT22;23733;53.254;10.430;2023-04-24T09:23:29;14.00;99.90
37896;DHT22;23733;53.254;10.430;2023-04-24T09:25:56;13.90;99.90
37896;DHT22;23733;53.254;10.430;2023-04-24T09:28:35;13.90;99.90
37896;DHT22;23733;53.254;10.430;2023-04-24T09:31:12;13.90;99.90
37896;DHT22;23733;53.254;10.430;2023-04-24T09:33:39;13.90;99.90
37896;DHT22;23733;53.254;10.430;2023-04-24T09:36:05;13.80;99.90
37896;DHT22;23733;53.254;10.430;2023-04-24T09:38:36;13.80;99.90
37896;DHT22;23733;53.254;10.430;2023-04-24T09:41:05;13.80;99.90
37896;DHT22;23733;53.254;10.430;2023-04-24T09:43:31;14.00;99.90
37896;DHT22;23733;53.254;10.430;2023-04-24T09:45:58;14.00;99.90
37896;DHT22;23733;53.254;10.430;2023-04-24T09:48:36;14.10;99.90
37896;DHT22;23733;53.254;10.430;2023-04-24T09:51:04;14.30;99.90
37896;DHT22;23733;53.254;10.430;2023-04-24T09:53:32;14.40;99.90
37896;DHT22;23733;53.254;10.430;2023-04-24T09:56:06;14.40;99.90
37896;DHT22;23733;53.254;10.430;2023-04-24T09:58:32;14.30;99.90
37896;DHT22;23733;53.254;10.430;2023-04-24T10:01:00;14.30;99.90
37896;DHT22;23733;53.254;10.430;2023-04-24T10:03:29;14.30;99.90
37896;DHT22;23733;53.254;10.430;2023-04-24T10:06:00;14.10;99.90
37896;DHT22;23733;53.254;10.430;2023-04-24T10:28:01;14.10;99.90
37896;DHT22;23733;53.254;10.430;2023-04-24T10:30:32;14.50;99.90
37896;DHT22;23733;53.254;10.430;2023-04-24T10:33:04;14.70;99.90
37896;DHT22;23733;53.254;10.430;2023-04-24T10:35:32;14.60;99.90
37896;DHT22;23733;53.254;10.430;2023-04-24T10:38:06;14.60;99.90
37896;DHT22;23733;53.254;10.430;2023-04-24T10:40:35;14.50;99.90
37896;DHT22;23733;53.254;10.430;2023-04-24T10:43:06;14.60;99.90
37896;DHT22;23733;53.254;10.430;2023-04-24T10:45:35;14.70;99.90
37896;DHT22;23733;53.254;10.430;2023-04-24T11:31:44;14.60;99.90
37896;DHT22;23733;53.254;10.430;2023-04-24T11:34:16;14.60;99.90
37896;DHT22;23733;53.254;10.430;2023-04-24T11:36:44;14.70;99.90
37896;DHT22;23733;53.254;10.430;2023-04-24T11:39:11;14.70;99.90
37896;DHT22;23733;53.254;10.430;2023-04-24T11:41:37;14.70;99.90
37896;DHT22;23733;53.254;10.430;2023-04-24T11:44:06;14.70;99.90
37896;DHT22;23733;53.254;10.430;2023-04-24T12:03:49;14.70;99.90
37896;DHT22;23733;53.254;10.430;2023-04-24T12:06:17;14.70;99.90
37896;DHT22;23733;53.254;10.430;2023-04-24T12:08:46;14.60;99.90
37896;DHT22;23733;53.254;10.430;2023-04-24T12:11:15;14.60;99.90
37896;DHT22;23733;53.254;10.430;2023-04-24T12:13:41;14.60;99.90
37896;DHT22;23733;53.254;10.430;2023-04-24T12:16:07;14.70;99.90
37896;DHT22;23733;53.254;10.430;2023-04-24T12:18:33;14.60;99.90
37896;DHT22;23733;53.254;10.430;2023-04-24T12:21:16;14.60;99.90
37896;DHT22;23733;53.254;10.430;2023-04-24T12:23:44;14.60;99.90
37896;DHT22;23733;53.254;10.430;2023-04-24T12:26:12;14.70;99.90
37896;DHT22;23733;53.254;10.430;2023-04-24T12:28:39;14.80;99.90
37896;DHT22;23733;53.254;10.430;2023-04-24T12:31:06;14.70;99.90
37896;DHT22;23733;53.254;10.430;2023-04-24T12:33:33;14.70;99.90
37896;DHT22;23733;53.254;10.430;2023-04-24T12:36:00;14.70;99.90
37896;DHT22;23733;53.254;10.430;2023-04-24T12:38:27;14.70;99.90
37896;DHT22;23733;53.254;10.430;2023-04-24T12:41:06;14.70;99.90
37896;DHT22;23733;53.254;10.430;2023-04-24T12:43:33;14.70;99.90
37896;DHT22;23733;53.254;10.430;2023-04-24T12:45:59;14.70;99.90
37896;DHT22;23733;53.254;10.430;2023-04-24T12:48:29;14.70;99.90
37896;DHT22;23733;53.254;10.430;2023-04-24T12:50:56;14.80;99.90
37896;DHT22;23733;53.254;10.430;2023-04-24T12:53:22;14.80;99.90
37896;DHT22;23733;53.254;10.430;2023-04-24T12:55:48;14.70;99.90
37896;DHT22;23733;53.254;10.430;2023-04-24T12:58:19;14.70;99.90
37896;DHT22;23733;53.254;10.430;2023-04-24T13:00:46;14.60;99.90
37896;DHT22;23733;53.254;10.430;2023-04-24T13:03:13;14.60;99.90
37896;DHT22;23733;53.254;10.430;2023-04-24T13:05:39;14.50;99.90
37896;DHT22;23733;53.254;10.430;2023-04-24T13:08:05;14.40;99.90
37896;DHT22;23733;53.254;10.430;2023-04-24T13:10:31;14.30;99.90
37896;DHT22;23733;53.254;10.430;2023-04-24T13:12:59;14.30;99.90
37896;DHT22;23733;53.254;10.430;2023-04-24T13:15:25;14.20;99.90
37896;DHT22;23733;53.254;10.430;2023-04-24T13:17:51;14.20;99.90
37896;DHT22;23733;53.254;10.430;2023-04-24T13:20:17;14.10;99.90
37896;DHT22;23733;53.254;10.430;2023-04-24T13:22:43;14.10;99.90
37896;DHT22;23733;53.254;10.430;2023-04-24T13:25:09;14.10;99.90
37896;DHT22;23733;53.254;10.430;2023-04-24T13:27:38;14.10;99.90
37896;DHT22;23733;53.254;10.430;2023-04-24T13:30:05;14.10;99.90
37896;DHT22;23733;53.254;10.430;2023-04-24T13:32:32;14.10;99.90
37896;DHT22;23733;53.254;10.430;2023-04-24T13:34:59;14.10;99.90
37896;DHT22;23733;53.254;10.430;2023-04-24T13:37:25;14.20;99.90
37896;DHT22;23733;53.254;10.430;2023-04-24T13:39:51;14.20;99.90
37896;DHT22;23733;53.254;10.430;2023-04-24T13:42:17;14.10;99.90
37896;DHT22;23733;53.254;10.430;2023-04-24T13:44:44;14.10;99.90
37896;DHT22;23733;53.254;10.430;2023-04-24T13:47:10;14.10;99.90
37896;DHT22;23733;53.254;10.430;2023-04-24T13:49:36;14.20;99.90
37896;DHT22;23733;53.254;10.430;2023-04-24T13:52:02;14.30;99.90
37896;DHT22;23733;53.254;10.430;2023-04-24T13:54:28;14.30;99.90
37896;DHT22;23733;53.254;10.430;2023-04-24T13:56:57;14.30;99.90
37896;DHT22;23733;53.254;10.430;2023-04-24T13:59:23;14.30;99.90
37896;DHT22;23733;53.254;10.430;2023-04-24T14:01:49;14.40;99.90
37896;DHT22;23733;53.254;10.430;2023-04-24T14:04:16;14.50;99.90
37896;DHT22;23733;53.254;10.430;2023-04-24T14:06:42;14.60;99.90
37896;DHT22;23733;53.254;10.430;2023-04-24T14:09:08;14.60;99.90
37896;DHT22;23733;53.254;10.430;2023-04-24T14:11:35;14.40;99.90
37896;DHT22;23733;53.254;10.430;2023-04-24T14:14:01;14.30;99.90
37896;DHT22;23733;53.254;10.430;2023-04-24T14:28:39;14.20;99.90
37896;DHT22;23733;53.254;10.430;2023-04-24T14:31:05;13.70;99.90
37896;DHT22;23733;53.254;10.430;2023-04-24T14:33:31;13.60;99.90
37896;DHT22;23733;53.254;10.430;2023-04-24T14:35:57;13.70;99.90
37896;DHT22;23733;53.254;10.430;2023-04-24T14:38:23;13.60;99.90
37896;DHT22;23733;53.254;10.430;2023-04-24T14:40:49;13.60;99.90
37896;DHT22;23733;53.254;10.430;2023-04-24T14:43:15;13.60;99.90
37896;DHT22;23733;53.254;10.430;2023-04-24T14:45:42;13.60;99.90
37896;DHT22;23733;53.254;10.430;2023-04-24T14:48:08;13.60;99.90
37896;DHT22;23733;53.254;10.430;2023-04-24T14:50:34;13.60;99.90
37896;DHT22;23733;53.254;10.430;2023-04-24T14:53:00;13.60;99.90
37896;DHT22;23733;53.254;10.430;2023-04-24T14:55:27;13.50;99.90
37896;DHT22;23733;53.254;10.430;2023-04-24T14:57:54;13.50;99.90
37896;DHT22;23733;53.254;10.430;2023-04-24T15:00:21;13.40;99.90
37896;DHT22;23733;53.254;10.430;2023-04-24T15:02:49;13.40;99.90
37896;DHT22;23733;53.254;10.430;2023-04-24T15:05:15;13.30;99.90
37896;DHT22;23733;53.254;10.430;2023-04-24T15:07:41;13.10;99.90
37896;DHT22;23733;53.254;10.430;2023-04-24T15:10:11;13.00;99.90
37896;DHT22;23733;53.254;10.430;2023-04-24T15:12:37;13.00;99.90
37896;DHT22;23733;53.254;10.430;2023-04-24T15:15:03;12.90;99.90
37896;DHT22;23733;53.254;10.430;2023-04-24T15:17:29;12.80;99.90
37896;DHT22;23733;53.254;10.430;2023-04-24T15:19:56;12.80;99.90
37896;DHT22;23733;53.254;10.430;2023-04-24T15:22:22;12.70;99.90
37896;DHT22;23733;53.254;10.430;2023-04-24T15:24:48;12.70;99.90
37896;DHT22;23733;53.254;10.430;2023-04-24T15:27:14;12.70;99.90
37896;DHT22;23733;53.254;10.430;2023-04-24T15:29:41;12.60;99.90
37896;DHT22;23733;53.254;10.430;2023-04-24T15:32:07;12.50;99.90
37896;DHT22;23733;53.254;10.430;2023-04-24T15:34:33;12.40;99.90
37896;DHT22;23733;53.254;10.430;2023-04-24T15:37:00;12.30;99.90
37896;DHT22;23733;53.254;10.430;2023-04-24T15:39:26;12.30;99.90
37896;DHT22;23733;53.254;10.430;2023-04-24T15:41:53;12.30;99.90
37896;DHT22;23733;53.254;10.430;2023-04-24T15:44:20;12.20;99.90
37896;DHT22;23733;53.254;10.430;2023-04-24T15:46:46;12.20;99.90
37896;DHT22;23733;53.254;10.430;2023-04-24T15:49:12;12.00;99.90
37896;DHT22;23733;53.254;10.430;2023-04-24T15:51:38;12.00;99.90
37896;DHT22;23733;53.254;10.430;2023-04-24T15:54:04;12.00;99.90
37896;DHT22;23733;53.254;10.430;2023-04-24T15:56:30;11.90;99.90
37896;DHT22;23733;53.254;10.430;2023-04-24T15:58:57;11.90;99.90
37896;DHT22;23733;53.254;10.430;2023-04-24T16:01:23;11.80;99.90
37896;DHT22;23733;53.254;10.430;2023-04-24T16:03:49;11.60;99.90
37896;DHT22;23733;53.254;10.430;2023-04-24T16:08:41;11.30;99.90
37896;DHT22;23733;53.254;10.430;2023-04-24T16:11:07;10.80;99.90
37896;DHT22;23733;53.254;10.430;2023-04-24T16:13:33;10.80;99.90
37896;DHT22;23733;53.254;10.430;2023-04-24T16:15:59;10.70;99.90
37896;DHT22;23733;53.254;10.430;2023-04-24T16:18:26;10.60;99.90
37896;DHT22;23733;53.254;10.430;2023-04-24T16:20:52;10.40;99.90
37896;DHT22;23733;53.254;10.430;2023-04-24T16:23:18;10.40;99.90
37896;DHT22;23733;53.254;10.430;2023-04-24T16:25:44;10.40;99.90
37896;DHT22;23733;53.254;10.430;2023-04-24T16:28:10;10.50;99.90
37896;DHT22;23733;53.254;10.430;2023-04-24T16:30:36;10.40;99.90
37896;DHT22;23733;53.254;10.430;2023-04-24T16:33:05;10.40;99.90
37896;DHT22;23733;53.254;10.430;2023-04-24T16:35:33;10.40;99.90
37896;DHT22;23733;53.254;10.430;2023-04-24T16:37:59;10.40;99.90
37896;DHT22;23733;53.254;10.430;2023-04-24T16:40:25;10.40;99.90
37896;DHT22;23733;53.254;10.430;2023-04-24T16:42:51;10.40;99.90
37896;DHT22;23733;53.254;10.430;2023-04-24T16:45:17;10.20;99.90
37896;DHT22;23733;53.254;10.430;2023-04-24T16:47:43;10.20;99.90
37896;DHT22;23733;53.254;10.430;2023-04-24T16:50:09;10.20;99.90
37896;DHT22;23733;53.254;10.430;2023-04-24T16:52:36;10.20;99.90
37896;DHT22;23733;53.254;10.430;2023-04-24T16:55:02;10.20;99.90
37896;DHT22;23733;53.254;10.430;2023-04-24T16:57:28;10.00;99.90
37896;DHT22;23733;53.254;10.430;2023-04-24T16:59:55;10.10;99.90
37896;DHT22;23733;53.254;10.430;2023-04-24T17:02:20;10.20;99.90
37896;DHT22;23733;53.254;10.430;2023-04-24T17:04:46;10.10;99.90
37896;DHT22;23733;53.254;10.430;2023-04-24T17:07:13;10.10;99.90
37896;DHT22;23733;53.254;10.430;2023-04-24T17:09:39;10.00;99.90
37896;DHT22;23733;53.254;10.430;2023-04-24T17:12:05;10.10;99.90
37896;DHT22;23733;53.254;10.430;2023-04-24T17:14:32;10.10;99.90
37896;DHT22;23733;53.254;10.430;2023-04-24T17:16:58;10.10;99.90
37896;DHT22;23733;53.254;10.430;2023-04-24T17:19:25;10.20;99.90
37896;DHT22;23733;53.254;10.430;2023-04-24T17:21:51;10.00;99.90
37896;DHT22;23733;53.254;10.430;2023-04-24T17:24:17;10.00;99.90
37896;DHT22;23733;53.254;10.430;2023-04-24T17:26:43;10.00;99.90
37896;DHT22;23733;53.254;10.430;2023-04-24T17:29:09;10.00;99.90
37896;DHT22;23733;53.254;10.430;2023-04-24T17:31:35;10.10;99.90
37896;DHT22;23733;53.254;10.430;2023-04-24T17:34:02;10.10;99.90
37896;DHT22;23733;53.254;10.430;2023-04-24T17:36:28;10.20;99.90
37896;DHT22;23733;53.254;10.430;2023-04-24T17:38:54;10.10;99.90
37896;DHT22;23733;53.254;10.430;2023-04-24T17:41:20;10.10;99.90
37896;DHT22;23733;53.254;10.430;2023-04-24T17:43:46;10.10;99.90
37896;DHT22;23733;53.254;10.430;2023-04-24T17:46:12;10.10;99.90
37896;DHT22;23733;53.254;10.430;2023-04-24T17:48:39;10.00;99.90
37896;DHT22;23733;53.254;10.430;2023-04-24T17:51:05;10.00;99.90
37896;DHT22;23733;53.254;10.430;2023-04-24T17:53:31;9.90;99.90
37896;DHT22;23733;53.254;10.430;2023-04-24T17:55:57;9.80;99.90
37896;DHT22;23733;53.254;10.430;2023-04-24T17:58:27;9.80;99.90
37896;DHT22;23733;53.254;10.430;2023-04-24T18:00:53;9.80;99.90
37896;DHT22;23733;53.254;10.430;2023-04-24T18:03:19;9.90;99.90
37896;DHT22;23733;53.254;10.430;2023-04-24T18:05:45;9.90;99.90
37896;DHT22;23733;53.254;10.430;2023-04-24T18:08:11;9.80;99.90
37896;DHT22;23733;53.254;10.430;2023-04-24T18:10:37;9.90;99.90
37896;DHT22;23733;53.254;10.430;2023-04-24T18:13:03;9.70;99.90
37896;DHT22;23733;53.254;10.430;2023-04-24T18:15:29;9.70;99.90
37896;DHT22;23733;53.254;10.430;2023-04-24T18:17:55;9.70;99.90
37896;DHT22;23733;53.254;10.430;2023-04-24T18:20:21;9.50;99.90
37896;DHT22;23733;53.254;10.430;2023-04-24T18:22:47;9.70;99.90
37896;DHT22;23733;53.254;10.430;2023-04-24T18:25:14;9.70;99.90
37896;DHT22;23733;53.254;10.430;2023-04-24T18:27:41;9.70;99.90
37896;DHT22;23733;53.254;10.430;2023-04-24T18:30:08;9.60;99.90
37896;DHT22;23733;53.254;10.430;2023-04-24T18:32:35;9.70;99.90
37896;DHT22;23733;53.254;10.430;2023-04-24T18:35:02;9.70;99.90
37896;DHT22;23733;53.254;10.430;2023-04-24T18:37:28;9.60;99.90
37896;DHT22;23733;53.254;10.430;2023-04-24T18:39:54;9.60;99.90
37896;DHT22;23733;53.254;10.430;2023-04-24T18:42:21;9.70;99.90
37896;DHT22;23733;53.254;10.430;2023-04-24T18:44:47;9.70;99.90
37896;DHT22;23733;53.254;10.430;2023-04-24T18:47:14;9.70;99.90
37896;DHT22;23733;53.254;10.430;2023-04-24T18:49:40;9.80;99.90
37896;DHT22;23733;53.254;10.430;2023-04-24T18:52:06;9.80;99.90
37896;DHT22;23733;53.254;10.430;2023-04-24T18:54:32;9.70;99.90
37896;DHT22;23733;53.254;10.430;2023-04-24T18:56:58;9.70;99.90
37896;DHT22;23733;53.254;10.430;2023-04-24T18:59:24;9.70;99.90
37896;DHT22;23733;53.254;10.430;2023-04-24T19:01:50;9.70;99.90
37896;DHT22;23733;53.254;10.430;2023-04-24T19:04:16;9.70;99.90
37896;DHT22;23733;53.254;10.430;2023-04-24T19:06:45;9.60;99.90
37896;DHT22;23733;53.254;10.430;2023-04-24T19:09:11;9.60;99.90
37896;DHT22;23733;53.254;10.430;2023-04-24T19:11:37;9.60;99.90
37896;DHT22;23733;53.254;10.430;2023-04-24T19:14:03;9.60;99.90
37896;DHT22;23733;53.254;10.430;2023-04-24T19:16:30;9.60;99.90
37896;DHT22;23733;53.254;10.430;2023-04-24T19:18:56;9.50;99.90
37896;DHT22;23733;53.254;10.430;2023-04-24T19:21:22;9.60;99.90
37896;DHT22;23733;53.254;10.430;2023-04-24T19:23:48;9.70;99.90
37896;DHT22;23733;53.254;10.430;2023-04-24T19:26:15;9.60;99.90
37896;DHT22;23733;53.254;10.430;2023-04-24T19:28:41;9.50;99.90
37896;DHT22;23733;53.254;10.430;2023-04-24T19:31:07;9.50;99.90
37896;DHT22;23733;53.254;10.430;2023-04-24T19:33:33;9.50;99.90
37896;DHT22;23733;53.254;10.430;2023-04-24T19:36:00;9.50;99.90
37896;DHT22;23733;53.254;10.430;2023-04-24T19:38:26;9.40;99.90
37896;DHT22;23733;53.254;10.430;2023-04-24T19:40:52;9.40;99.90
37896;DHT22;23733;53.254;10.430;2023-04-24T19:43:18;9.40;99.90
37896;DHT22;23733;53.254;10.430;2023-04-24T19:45:44;9.50;99.90
37896;DHT22;23733;53.254;10.430;2023-04-24T19:48:10;9.50;99.90
37896;DHT22;23733;53.254;10.430;2023-04-24T19:50:36;9.50;99.90
37896;DHT22;23733;53.254;10.430;2023-04-24T19:53:03;9.50;99.90
37896;DHT22;23733;53.254;10.430;2023-04-24T19:55:30;9.50;99.90
37896;DHT22;23733;53.254;10.430;2023-04-24T19:57:56;9.40;99.90
37896;DHT22;23733;53.254;10.430;2023-04-24T20:00:22;9.40;99.90
37896;DHT22;23733;53.254;10.430;2023-04-24T20:02:48;9.40;99.90
37896;DHT22;23733;53.254;10.430;2023-04-24T20:05:14;9.30;99.90
37896;DHT22;23733;53.254;10.430;2023-04-24T20:07:40;9.40;99.90
37896;DHT22;23733;53.254;10.430;2023-04-24T20:10:06;9.30;99.90
37896;DHT22;23733;53.254;10.430;2023-04-24T20:12:33;9.30;99.90
37896;DHT22;23733;53.254;10.430;2023-04-24T20:14:59;9.30;99.90
37896;DHT22;23733;53.254;10.430;2023-04-24T20:17:25;9.20;99.90
37896;DHT22;23733;53.254;10.430;2023-04-24T20:19:51;9.20;99.90
37896;DHT22;23733;53.254;10.430;2023-04-24T20:22:17;9.30;99.90
37896;DHT22;23733;53.254;10.430;2023-04-24T20:24:43;9.20;99.90
37896;DHT22;23733;53.254;10.430;2023-04-24T20:27:10;9.10;99.90
37896;DHT22;23733;53.254;10.430;2023-04-24T20:29:38;9.20;99.90
37896;DHT22;23733;53.254;10.430;2023-04-24T20:32:04;9.20;99.90
37896;DHT22;23733;53.254;10.430;2023-04-24T20:34:31;9.30;99.90
37896;DHT22;23733;53.254;10.430;2023-04-24T20:36:57;9.30;99.90
37896;DHT22;23733;53.254;10.430;2023-04-24T20:39:24;9.30;99.90
37896;DHT22;23733;53.254;10.430;2023-04-24T20:41:50;9.40;99.90
37896;DHT22;23733;53.254;10.430;2023-04-24T20:44:17;9.30;99.90
37896;DHT22;23733;53.254;10.430;2023-04-24T20:46:43;9.30;99.90
37896;DHT22;23733;53.254;10.430;2023-04-24T20:49:09;9.30;99.90
37896;DHT22;23733;53.254;10.430;2023-04-24T20:51:35;9.30;99.90
37896;DHT22;23733;53.254;10.430;2023-04-24T20:54:01;9.30;99.90
37896;DHT22;23733;53.254;10.430;2023-04-24T20:56:28;9.30;99.90
37896;DHT22;23733;53.254;10.430;2023-04-24T20:58:54;9.20;99.90
37896;DHT22;23733;53.254;10.430;2023-04-24T21:01:20;9.20;99.90
37896;DHT22;23733;53.254;10.430;2023-04-24T21:03:46;9.20;99.90
37896;DHT22;23733;53.254;10.430;2023-04-24T21:06:12;9.10;99.90
37896;DHT22;23733;53.254;10.430;2023-04-24T21:08:38;9.10;99.90
37896;DHT22;23733;53.254;10.430;2023-04-24T21:11:04;9.10;99.90
37896;DHT22;23733;53.254;10.430;2023-04-24T21:13:30;9.10;99.90
37896;DHT22;23733;53.254;10.430;2023-04-24T21:15:57;9.00;99.90
37896;DHT22;23733;53.254;10.430;2023-04-24T21:18:23;9.10;99.90
37896;DHT22;23733;53.254;10.430;2023-04-24T21:20:49;9.00;99.90
37896;DHT22;23733;53.254;10.430;2023-04-24T21:23:16;9.00;99.90
37896;DHT22;23733;53.254;10.430;2023-04-24T21:25:42;9.00;99.90
37896;DHT22;23733;53.254;10.430;2023-04-24T21:28:08;9.10;99.90
37896;DHT22;23733;53.254;10.430;2023-04-24T21:30:34;9.00;99.90
37896;DHT22;23733;53.254;10.430;2023-04-24T21:33:01;9.00;99.90
37896;DHT22;23733;53.254;10.430;2023-04-24T21:35:27;9.10;99.90
37896;DHT22;23733;53.254;10.430;2023-04-24T21:37:53;9.10;99.90
37896;DHT22;23733;53.254;10.430;2023-04-24T21:40:19;9.00;99.90
37896;DHT22;23733;53.254;10.430;2023-04-24T21:42:45;9.10;99.90
37896;DHT22;23733;53.254;10.430;2023-04-24T21:45:11;9.10;99.90
37896;DHT22;23733;53.254;10.430;2023-04-24T21:47:37;9.00;99.90
37896;DHT22;23733;53.254;10.430;2023-04-24T21:50:04;9.00;99.90
37896;DHT22;23733;53.254;10.430;2023-04-24T21:52:30;9.00;99.90
37896;DHT22;23733;53.254;10.430;2023-04-24T21:54:56;9.00;99.90
37896;DHT22;23733;53.254;10.430;2023-04-24T21:57:22;9.00;99.90
37896;DHT22;23733;53.254;10.430;2023-04-24T21:59:49;9.00;99.90
37896;DHT22;23733;53.254;10.430;2023-04-24T22:02:16;9.00;99.90
37896;DHT22;23733;53.254;10.430;2023-04-24T22:04:42;8.90;99.90
37896;DHT22;23733;53.254;10.430;2023-04-24T22:07:08;8.90;99.90
37896;DHT22;23733;53.254;10.430;2023-04-24T22:09:34;8.90;99.90
37896;DHT22;23733;53.254;10.430;2023-04-24T22:12:01;8.90;99.90
37896;DHT22;23733;53.254;10.430;2023-04-24T22:14:27;8.90;99.90
37896;DHT22;23733;53.254;10.430;2023-04-24T22:16:54;8.80;99.90
37896;DHT22;23733;53.254;10.430;2023-04-24T22:19:21;8.80;99.90
37896;DHT22;23733;53.254;10.430;2023-04-24T22:21:48;8.80;99.90
37896;DHT22;23733;53.254;10.430;2023-04-24T22:24:16;8.80;99.90
37896;DHT22;23733;53.254;10.430;2023-04-24T22:26:42;8.80;99.90
37896;DHT22;23733;53.254;10.430;2023-04-24T22:29:09;8.80;99.90
37896;DHT22;23733;53.254;10.430;2023-04-24T22:31:35;8.70;99.90
37896;DHT22;23733;53.254;10.430;2023-04-24T22:34:01;8.70;99.90
37896;DHT22;23733;53.254;10.430;2023-04-24T22:36:27;8.70;99.90
37896;DHT22;23733;53.254;10.430;2023-04-24T22:38:53;8.60;99.90
37896;DHT22;23733;53.254;10.430;2023-04-24T22:41:20;8.70;99.90
37896;DHT22;23733;53.254;10.430;2023-04-24T22:43:46;8.70;99.90
37896;DHT22;23733;53.254;10.430;2023-04-24T22:46:12;8.70;99.90
37896;DHT22;23733;53.254;10.430;2023-04-24T22:48:38;8.60;99.90
37896;DHT22;23733;53.254;10.430;2023-04-24T22:51:05;8.60;99.90
37896;DHT22;23733;53.254;10.430;2023-04-24T22:53:31;8.60;99.90
37896;DHT22;23733;53.254;10.430;2023-04-24T22:55:57;8.60;99.90
37896;DHT22;23733;53.254;10.430;2023-04-24T22:58:23;8.60;99.90
37896;DHT22;23733;53.254;10.430;2023-04-24T23:00:49;8.60;99.90
37896;DHT22;23733;53.254;10.430;2023-04-24T23:03:15;8.60;99.90
37896;DHT22;23733;53.254;10.430;2023-04-24T23:05:41;8.60;99.90
37896;DHT22;23733;53.254;10.430;2023-04-24T23:08:07;8.60;99.90
37896;DHT22;23733;53.254;10.430;2023-04-24T23:10:33;8.60;99.90
37896;DHT22;23733;53.254;10.430;2023-04-24T23:12:59;8.60;99.90
37896;DHT22;23733;53.254;10.430;2023-04-24T23:15:25;8.60;99.90
37896;DHT22;23733;53.254;10.430;2023-04-24T23:17:51;8.60;99.90
37896;DHT22;23733;53.254;10.430;2023-04-24T23:20:17;8.50;99.90
37896;DHT22;23733;53.254;10.430;2023-04-24T23:22:43;8.50;99.90
37896;DHT22;23733;53.254;10.430;2023-04-24T23:25:09;8.40;99.90
37896;DHT22;23733;53.254;10.430;2023-04-24T23:27:36;8.40;99.90
37896;DHT22;23733;53.254;10.430;2023-04-24T23:30:06;8.40;99.90
37896;DHT22;23733;53.254;10.430;2023-04-24T23:32:32;8.50;99.90